createdAt,value
2018-09-08T00:01:09.389Z,99.90
2018-09-08T00:03:36.828Z,99.90
2018-09-08T00:06:04.320Z,99.90
2018-09-08T00:08:31.698Z,99.90
2018-09-08T00:10:59.179Z,99.90
2018-09-08T00:13:26.546Z,99.90
2018-09-08T00:15:59.465Z,99.90
2018-09-08T00:18:32.445Z,99.90
2018-09-08T00:21:05.720Z,99.90
2018-09-08T00:23:38.715Z,99.90
2018-09-08T00:26:11.824Z,99.90
2018-09-08T00:28:41.394Z,99.90
2018-09-08T00:31:17.894Z,99.90
2018-09-08T00:33:45.801Z,99.90
2018-09-08T00:36:13.149Z,99.90
2018-09-08T00:38:40.828Z,99.90
2018-09-08T00:41:08.234Z,99.90
2018-09-08T00:43:35.623Z,99.90
2018-09-08T00:46:03.019Z,99.90
2018-09-08T00:48:30.460Z,99.90
2018-09-08T00:50:58.122Z,99.90
2018-09-08T00:53:25.546Z,99.90
2018-09-08T00:55:52.942Z,99.90
2018-09-08T00:58:20.338Z,99.90
2018-09-08T01:00:47.730Z,99.90
2018-09-08T01:03:15.222Z,99.90
2018-09-08T01:05:42.566Z,99.90
2018-09-08T01:08:09.933Z,99.90
2018-09-08T01:10:37.333Z,99.90
2018-09-08T01:13:04.865Z,99.90
2018-09-08T01:15:32.317Z,99.90
2018-09-08T01:17:59.696Z,99.90
2018-09-08T01:20:27.021Z,99.90
2018-09-08T01:22:54.410Z,99.90
2018-09-08T01:25:21.729Z,99.90
2018-09-08T01:27:49.169Z,99.90
2018-09-08T01:30:16.641Z,99.90
2018-09-08T01:32:44.239Z,99.90
2018-09-08T01:35:11.631Z,99.90
2018-09-08T01:37:39.065Z,99.90
2018-09-08T01:40:07.251Z,99.90
2018-09-08T01:42:34.673Z,99.90
2018-09-08T01:45:02.112Z,99.90
2018-09-08T01:47:29.441Z,99.90
2018-09-08T01:49:56.905Z,99.90
2018-09-08T01:52:24.267Z,99.90
2018-09-08T01:54:51.682Z,99.90
2018-09-08T01:57:19.187Z,99.90
2018-09-08T01:59:46.563Z,99.90
2018-09-08T02:02:13.957Z,99.90
2018-09-08T02:04:41.383Z,99.90
2018-09-08T02:07:08.769Z,99.90
2018-09-08T02:09:36.223Z,99.90
2018-09-08T02:12:03.691Z,99.90
2018-09-08T02:14:31.035Z,99.90
2018-09-08T02:16:58.407Z,99.90
2018-09-08T02:19:25.767Z,99.90
2018-09-08T02:21:53.079Z,99.90
2018-09-08T02:24:20.459Z,99.90
2018-09-08T02:26:47.881Z,99.90
2018-09-08T02:29:15.341Z,99.90
2018-09-08T02:31:42.679Z,99.90
2018-09-08T02:34:10.036Z,99.90
2018-09-08T02:36:37.353Z,99.90
2018-09-08T02:39:06.761Z,99.90
2018-09-08T02:41:34.193Z,99.90
2018-09-08T02:44:01.564Z,99.90
2018-09-08T02:46:28.901Z,99.90
2018-09-08T02:48:56.213Z,99.90
2018-09-08T02:51:22.603Z,99.90
2018-09-08T02:53:48.960Z,99.90
2018-09-08T02:56:15.291Z,99.90
2018-09-08T02:58:41.635Z,99.90
2018-09-08T03:01:08.041Z,99.90
2018-09-08T03:03:34.457Z,99.90
2018-09-08T03:06:00.869Z,99.90
2018-09-08T03:08:27.232Z,99.90
2018-09-08T03:10:53.591Z,99.90
2018-09-08T03:13:19.949Z,99.90
2018-09-08T03:15:46.318Z,99.90
2018-09-08T03:18:12.715Z,99.90
2018-09-08T03:20:39.042Z,99.90
2018-09-08T03:23:05.346Z,99.90
2018-09-08T03:25:31.718Z,99.90
2018-09-08T03:27:58.077Z,99.90
2018-09-08T03:30:24.453Z,99.90
2018-09-08T03:32:50.840Z,99.90
2018-09-08T03:35:17.232Z,99.90
2018-09-08T03:37:43.653Z,99.90
2018-09-08T03:40:10.064Z,99.90
2018-09-08T03:42:36.417Z,99.90
2018-09-08T03:45:02.831Z,99.90
2018-09-08T03:47:29.161Z,99.90
2018-09-08T03:49:55.566Z,99.90
2018-09-08T03:52:21.937Z,99.90
2018-09-08T03:54:48.293Z,99.90
2018-09-08T03:57:14.663Z,99.90
2018-09-08T03:59:41.049Z,99.90
2018-09-08T04:02:07.414Z,99.90
2018-09-08T04:04:34.853Z,99.90
2018-09-08T04:07:02.297Z,99.90
2018-09-08T04:09:29.731Z,99.90
2018-09-08T04:11:57.162Z,99.90
2018-09-08T04:14:24.623Z,99.90
2018-09-08T04:16:52.037Z,99.90
2018-09-08T04:19:19.375Z,99.90
2018-09-08T04:21:46.817Z,99.90
2018-09-08T04:24:14.194Z,99.90
2018-09-08T04:26:41.581Z,99.90
2018-09-08T04:29:08.945Z,99.90
2018-09-08T04:31:36.273Z,99.90
2018-09-08T04:34:03.607Z,99.90
2018-09-08T04:36:31.009Z,99.90
2018-09-08T04:38:58.391Z,99.90
2018-09-08T04:41:25.773Z,99.90
2018-09-08T04:43:53.149Z,99.90
2018-09-08T04:46:20.493Z,99.90
2018-09-08T04:48:47.807Z,99.90
2018-09-08T04:51:15.180Z,99.90
2018-09-08T04:53:42.515Z,99.90
2018-09-08T04:56:09.881Z,99.90
2018-09-08T04:58:37.267Z,99.90
2018-09-08T05:01:05.025Z,99.90
2018-09-08T05:03:32.505Z,99.90
2018-09-08T05:05:59.895Z,99.90
2018-09-08T05:08:27.373Z,99.90
2018-09-08T05:10:54.753Z,99.90
2018-09-08T05:13:22.211Z,99.90
2018-09-08T05:15:49.797Z,99.90
2018-09-08T05:18:17.143Z,99.90
2018-09-08T05:20:44.543Z,99.90
2018-09-08T05:23:11.887Z,99.90
2018-09-08T05:25:39.196Z,99.90
2018-09-08T05:28:06.522Z,99.90
2018-09-08T05:30:33.900Z,99.90
2018-09-08T05:33:01.254Z,99.90
2018-09-08T05:35:28.671Z,99.90
2018-09-08T05:37:56.135Z,99.90
2018-09-08T05:40:23.490Z,99.90
2018-09-08T05:42:50.850Z,99.90
2018-09-08T05:45:18.147Z,99.90
2018-09-08T05:47:45.565Z,99.90
2018-09-08T05:50:13.203Z,99.90
2018-09-08T05:52:40.523Z,99.90
2018-09-08T05:55:07.919Z,99.90
2018-09-08T05:57:35.420Z,99.90
2018-09-08T06:00:03.025Z,99.90
2018-09-08T06:02:30.465Z,99.90
2018-09-08T06:04:57.771Z,99.90
2018-09-08T06:07:25.087Z,99.90
2018-09-08T06:09:52.460Z,99.90
2018-09-08T06:12:19.730Z,99.90
2018-09-08T06:14:47.130Z,99.90
2018-09-08T06:17:14.552Z,99.90
2018-09-08T06:19:41.962Z,99.90
2018-09-08T06:22:09.344Z,99.90
2018-09-08T06:24:36.624Z,99.90
2018-09-08T06:27:04.030Z,99.90
2018-09-08T06:29:31.413Z,99.90
2018-09-08T06:31:58.800Z,99.90
2018-09-08T06:34:26.150Z,99.90
2018-09-08T06:36:53.590Z,99.90
2018-09-08T06:39:21.096Z,99.90
2018-09-08T06:41:48.534Z,99.90
2018-09-08T06:44:15.966Z,99.90
2018-09-08T06:46:43.382Z,99.90
2018-09-08T06:49:10.886Z,99.90
2018-09-08T06:51:38.284Z,99.90
2018-09-08T06:54:05.601Z,99.90
2018-09-08T06:56:32.930Z,99.90
2018-09-08T06:59:00.797Z,99.90
2018-09-08T07:01:28.163Z,99.90
2018-09-08T07:03:55.572Z,99.90
2018-09-08T07:06:22.858Z,99.90
2018-09-08T07:08:50.261Z,99.90
2018-09-08T07:11:17.654Z,99.90
2018-09-08T07:13:45.086Z,99.90
2018-09-08T07:16:12.517Z,99.90
2018-09-08T07:18:39.823Z,99.90
2018-09-08T07:21:07.278Z,99.90
2018-09-08T07:23:34.699Z,99.90
2018-09-08T07:26:02.517Z,99.90
2018-09-08T07:28:30.600Z,99.90
2018-09-08T07:30:58.011Z,99.90
2018-09-08T07:33:25.381Z,99.90
2018-09-08T07:35:52.959Z,99.90
2018-09-08T07:38:20.255Z,99.90
2018-09-08T07:40:47.672Z,99.90
2018-09-08T07:43:14.992Z,99.90
2018-09-08T07:45:42.381Z,99.90
2018-09-08T07:48:09.800Z,99.90
2018-09-08T07:50:37.237Z,99.90
2018-09-08T07:53:04.662Z,99.90
2018-09-08T07:55:32.213Z,99.90
2018-09-08T07:57:59.758Z,99.90
2018-09-08T08:00:27.102Z,99.90
2018-09-08T08:02:54.624Z,99.90
2018-09-08T08:05:22.065Z,99.90
2018-09-08T08:07:49.388Z,99.90
2018-09-08T08:10:16.757Z,99.90
2018-09-08T08:12:44.276Z,99.90
2018-09-08T08:15:11.695Z,99.90
2018-09-08T08:17:39.054Z,99.90
2018-09-08T08:20:06.576Z,99.90
2018-09-08T08:22:33.987Z,99.90
2018-09-08T08:25:01.437Z,99.90
2018-09-08T08:27:28.851Z,99.90
2018-09-08T08:29:56.333Z,99.90
2018-09-08T08:32:23.646Z,99.90
2018-09-08T08:34:51.082Z,99.90
2018-09-08T08:37:18.621Z,99.90
2018-09-08T08:39:46.054Z,99.90
2018-09-08T08:42:13.410Z,99.90
2018-09-08T08:44:40.871Z,99.90
2018-09-08T08:47:08.297Z,99.90
2018-09-08T08:49:35.779Z,99.90
2018-09-08T08:52:14.658Z,99.90
2018-09-08T08:54:44.134Z,99.90
2018-09-08T08:57:11.561Z,99.90
2018-09-08T08:59:39.058Z,99.90
2018-09-08T09:02:06.439Z,99.90
2018-09-08T09:04:33.763Z,99.90
2018-09-08T09:07:01.282Z,99.90
2018-09-08T09:09:28.747Z,99.90
2018-09-08T09:11:56.326Z,99.90
2018-09-08T09:14:23.574Z,99.90
2018-09-08T09:16:50.921Z,99.90
2018-09-08T09:19:35.982Z,99.90
2018-09-08T09:22:16.205Z,99.90
2018-09-08T09:24:48.925Z,99.90
2018-09-08T09:27:15.970Z,99.90
2018-09-08T09:29:43.342Z,99.90
2018-09-08T09:32:10.714Z,99.90
2018-09-08T09:34:38.284Z,99.90
2018-09-08T09:37:05.662Z,99.90
2018-09-08T09:39:33.018Z,99.90
2018-09-08T09:42:00.454Z,99.90
2018-09-08T09:44:27.746Z,99.90
2018-09-08T09:46:55.149Z,99.90
2018-09-08T09:49:22.546Z,99.90
2018-09-08T09:51:49.904Z,99.90
2018-09-08T09:54:17.245Z,99.90
2018-09-08T09:56:44.739Z,99.90
2018-09-08T09:59:12.130Z,99.90
2018-09-08T10:01:43.079Z,99.90
2018-09-08T10:04:11.196Z,99.90
2018-09-08T10:06:38.640Z,99.90
2018-09-08T10:09:06.704Z,99.90
2018-09-08T10:11:34.240Z,99.90
2018-09-08T10:14:01.645Z,99.90
2018-09-08T10:16:29.089Z,99.90
2018-09-08T10:18:56.782Z,99.90
2018-09-08T10:21:24.307Z,99.90
2018-09-08T10:24:04.348Z,99.90
2018-09-08T10:26:19.130Z,99.90
2018-09-08T10:28:46.463Z,99.90
2018-09-08T10:31:13.782Z,99.90
2018-09-08T10:33:41.103Z,99.90
2018-09-08T10:36:08.462Z,99.90
2018-09-08T10:38:35.857Z,99.90
2018-09-08T10:41:03.288Z,99.90
2018-09-08T10:43:30.671Z,99.90
2018-09-08T10:45:58.057Z,99.90
2018-09-08T10:48:25.554Z,99.90
2018-09-08T10:50:53.104Z,99.90
2018-09-08T10:53:20.406Z,99.90
2018-09-08T10:55:47.821Z,99.90
2018-09-08T10:58:15.213Z,99.90
2018-09-08T11:00:42.646Z,99.90
2018-09-08T11:03:10.010Z,99.90
2018-09-08T11:05:37.481Z,99.90
2018-09-08T11:08:04.921Z,99.90
2018-09-08T11:10:32.271Z,99.90
2018-09-08T11:12:59.684Z,99.90
2018-09-08T11:15:27.063Z,99.90
2018-09-08T11:17:54.424Z,99.90
2018-09-08T11:20:21.821Z,99.90
2018-09-08T11:22:49.237Z,99.90
2018-09-08T11:25:16.635Z,99.90
2018-09-08T11:27:44.066Z,99.90
2018-09-08T11:30:11.527Z,99.90
2018-09-08T11:32:38.821Z,99.90
2018-09-08T11:35:06.310Z,99.90
2018-09-08T11:37:33.690Z,99.90
2018-09-08T11:40:01.182Z,99.90
2018-09-08T11:42:28.660Z,99.90
2018-09-08T11:44:56.155Z,99.90
2018-09-08T11:47:23.512Z,99.90
2018-09-08T11:49:50.841Z,99.90
2018-09-08T11:52:18.310Z,99.90
2018-09-08T11:54:45.627Z,99.90
2018-09-08T11:57:13.027Z,99.20
2018-09-08T11:59:40.446Z,99.90
2018-09-08T12:02:07.859Z,99.90
2018-09-08T12:04:35.208Z,99.70
2018-09-08T12:07:02.579Z,99.90
2018-09-08T12:09:29.914Z,99.90
2018-09-08T12:11:57.295Z,99.90
2018-09-08T12:14:24.743Z,99.90
2018-09-08T12:16:52.134Z,99.30
2018-09-08T12:19:19.486Z,97.60
2018-09-08T12:21:46.892Z,96.60
2018-09-08T12:24:14.305Z,95.80
2018-09-08T12:26:41.735Z,95.10
2018-09-08T12:29:09.102Z,94.80
2018-09-08T12:31:36.589Z,94.20
2018-09-08T12:34:04.026Z,94.40
2018-09-08T12:36:31.502Z,93.80
2018-09-08T12:38:59.049Z,93.10
2018-09-08T12:41:26.386Z,94.80
2018-09-08T12:43:53.801Z,95.10
2018-09-08T12:46:21.318Z,94.20
2018-09-08T12:48:48.713Z,93.50
2018-09-08T12:51:16.095Z,94.60
2018-09-08T12:53:43.638Z,93.60
2018-09-08T12:56:10.986Z,93.60
2018-09-08T12:58:38.553Z,94.90
2018-09-08T13:01:06.027Z,91.60
2018-09-08T13:03:33.479Z,94.50
2018-09-08T13:06:01.020Z,94.30
2018-09-08T13:08:28.485Z,93.20
2018-09-08T13:10:56.036Z,93.30
2018-09-08T13:13:23.443Z,91.20
2018-09-08T13:15:50.957Z,92.00
2018-09-08T13:18:18.353Z,92.50
2018-09-08T13:20:45.933Z,90.60
2018-09-08T13:23:13.429Z,92.80
2018-09-08T13:25:40.877Z,92.60
2018-09-08T13:28:08.331Z,93.50
2018-09-08T13:30:35.758Z,90.50
2018-09-08T13:33:03.108Z,92.80
2018-09-08T13:35:30.459Z,92.30
2018-09-08T13:37:57.849Z,91.70
2018-09-08T13:40:25.236Z,91.80
2018-09-08T13:42:52.681Z,90.80
2018-09-08T13:45:20.237Z,91.40
2018-09-08T13:47:47.583Z,91.10
2018-09-08T13:50:15.022Z,89.40
2018-09-08T13:52:42.483Z,90.40
2018-09-08T13:55:09.881Z,90.00
2018-09-08T13:57:37.431Z,90.70
2018-09-08T14:00:06.080Z,90.00
2018-09-08T14:02:33.581Z,91.80
2018-09-08T14:05:01.032Z,91.50
2018-09-08T14:07:28.515Z,89.70
2018-09-08T14:09:56.105Z,89.90
2018-09-08T14:12:23.515Z,90.20
2018-09-08T14:14:50.954Z,89.10
2018-09-08T14:17:18.436Z,90.00
2018-09-08T14:19:45.975Z,88.60
2018-09-08T14:22:13.362Z,88.80
2018-09-08T14:24:40.699Z,90.10
2018-09-08T14:27:08.087Z,87.80
2018-09-08T14:29:35.439Z,87.30
2018-09-08T14:32:02.808Z,87.40
2018-09-08T14:34:30.203Z,89.80
2018-09-08T14:36:57.565Z,86.50
2018-09-08T14:39:25.092Z,90.10
2018-09-08T14:41:52.582Z,84.40
2018-09-08T14:44:20.024Z,86.00
2018-09-08T14:46:47.369Z,87.70
2018-09-08T14:49:14.760Z,82.50
2018-09-08T14:51:42.083Z,83.30
2018-09-08T14:54:09.530Z,84.20
2018-09-08T14:56:36.967Z,81.20
2018-09-08T14:59:04.500Z,83.60
2018-09-08T15:01:31.888Z,82.40
2018-09-08T15:03:59.292Z,84.70
2018-09-08T15:06:26.798Z,84.50
2018-09-08T15:08:54.290Z,83.10
2018-09-08T15:11:21.875Z,82.40
2018-09-08T15:13:49.234Z,81.80
2018-09-08T15:16:16.749Z,81.80
2018-09-08T15:18:44.190Z,81.90
2018-09-08T15:21:11.834Z,87.30
2018-09-08T15:23:39.193Z,83.60
2018-09-08T15:26:06.550Z,83.50
2018-09-08T15:28:34.058Z,84.00
2018-09-08T15:31:01.624Z,88.60
2018-09-08T15:33:29.001Z,85.20
2018-09-08T15:35:56.427Z,88.30
2018-09-08T15:38:24.034Z,89.40
2018-09-08T15:40:51.637Z,87.90
2018-09-08T15:43:19.130Z,88.30
2018-09-08T15:45:46.520Z,87.80
2018-09-08T15:48:13.908Z,88.50
2018-09-08T15:50:41.311Z,86.30
2018-09-08T15:53:08.723Z,86.10
2018-09-08T15:55:36.012Z,85.20
2018-09-08T15:58:03.468Z,88.80
2018-09-08T16:00:31.037Z,88.10
2018-09-08T16:02:58.887Z,86.00
2018-09-08T16:05:26.328Z,90.30
2018-09-08T16:07:53.811Z,86.80
2018-09-08T16:10:21.283Z,88.00
2018-09-08T16:12:48.635Z,85.30
2018-09-08T16:15:16.172Z,87.90
2018-09-08T16:17:43.645Z,89.90
2018-09-08T16:20:11.177Z,89.30
2018-09-08T16:22:38.632Z,89.70
2018-09-08T16:25:06.053Z,90.10
2018-09-08T16:27:33.449Z,90.40
2018-09-08T16:30:00.945Z,90.10
2018-09-08T16:32:28.422Z,91.30
2018-09-08T16:34:55.813Z,91.40
2018-09-08T16:37:23.305Z,91.70
2018-09-08T16:39:50.743Z,92.30
2018-09-08T16:42:18.099Z,92.10
2018-09-08T16:44:45.459Z,92.50
2018-09-08T16:47:12.897Z,92.20
2018-09-08T16:49:40.381Z,92.60
2018-09-08T16:52:07.992Z,93.10
2018-09-08T16:54:35.390Z,94.50
2018-09-08T16:57:02.905Z,95.80
2018-09-08T16:59:30.439Z,96.10
2018-09-08T17:01:57.819Z,95.10
2018-09-08T17:04:25.360Z,96.10
2018-09-08T17:06:52.884Z,95.60
2018-09-08T17:09:20.264Z,96.10
2018-09-08T17:11:47.616Z,96.30
2018-09-08T17:14:15.083Z,95.90
2018-09-08T17:16:42.454Z,96.40
2018-09-08T17:19:09.829Z,97.60
2018-09-08T17:21:37.325Z,96.90
2018-09-08T17:24:04.770Z,98.30
2018-09-08T17:26:32.175Z,99.40
2018-09-08T17:28:59.620Z,99.90
2018-09-08T17:31:27.030Z,99.90
2018-09-08T17:33:54.413Z,99.90
2018-09-08T17:36:21.763Z,99.90
2018-09-08T17:38:49.321Z,99.90
2018-09-08T17:41:16.709Z,99.90
2018-09-08T17:43:44.115Z,99.90
2018-09-08T17:46:11.464Z,99.90
2018-09-08T17:48:38.914Z,99.90
2018-09-08T17:51:06.332Z,99.90
2018-09-08T17:53:33.761Z,99.90
2018-09-08T17:56:01.188Z,99.90
2018-09-08T17:58:28.625Z,99.90
2018-09-08T18:00:56.151Z,99.90
2018-09-08T18:03:23.470Z,99.90
2018-09-08T18:05:50.918Z,99.90
2018-09-08T18:08:18.878Z,99.90
2018-09-08T18:10:46.430Z,99.90
2018-09-08T18:13:14.172Z,99.90
2018-09-08T18:15:41.554Z,99.90
2018-09-08T18:18:09.566Z,99.90
2018-09-08T18:20:36.839Z,99.90
2018-09-08T18:23:04.175Z,99.90
2018-09-08T18:25:31.622Z,99.90
2018-09-08T18:27:59.082Z,99.90
2018-09-08T18:30:26.447Z,99.90
2018-09-08T18:32:53.974Z,99.90
2018-09-08T18:35:21.416Z,99.90
2018-09-08T18:37:48.945Z,99.90
2018-09-08T18:40:16.342Z,99.90
2018-09-08T18:42:43.763Z,99.90
2018-09-08T18:45:11.227Z,99.90
2018-09-08T18:47:38.704Z,99.90
2018-09-08T18:50:06.141Z,99.90
2018-09-08T18:52:33.544Z,99.90
2018-09-08T18:55:01.015Z,99.90
2018-09-08T18:57:28.449Z,99.90
2018-09-08T18:59:55.855Z,99.90
2018-09-08T19:02:23.227Z,99.90
2018-09-08T19:04:50.753Z,99.90
2018-09-08T19:07:18.184Z,99.90
2018-09-08T19:09:50.118Z,99.90
2018-09-08T19:12:17.505Z,99.90
2018-09-08T19:14:50.514Z,99.90
2018-09-08T19:17:17.995Z,99.90
2018-09-08T19:19:45.498Z,99.90
2018-09-08T19:22:13.307Z,99.90
2018-09-08T19:24:43.096Z,99.90
2018-09-08T19:27:10.794Z,99.90
2018-09-08T19:29:43.776Z,99.90
2018-09-08T19:32:11.303Z,99.90
2018-09-08T19:34:38.733Z,99.90
2018-09-08T19:37:06.189Z,99.90
2018-09-08T19:39:33.670Z,99.90
2018-09-08T19:42:01.006Z,99.90
2018-09-08T19:44:28.518Z,99.90
2018-09-08T19:47:01.622Z,99.90
2018-09-08T19:49:29.179Z,99.90
2018-09-08T19:51:56.667Z,99.90
2018-09-08T19:54:23.969Z,99.90
2018-09-08T19:56:57.069Z,99.90
2018-09-08T19:59:24.455Z,99.90
2018-09-08T20:01:51.865Z,99.90
2018-09-08T20:04:19.847Z,99.90
2018-09-08T20:06:47.351Z,99.90
2018-09-08T20:09:14.715Z,99.90
2018-09-08T20:11:42.142Z,99.90
2018-09-08T20:14:10.250Z,99.90
2018-09-08T20:16:37.669Z,99.90
2018-09-08T20:19:05.009Z,99.90
2018-09-08T20:21:33.178Z,99.90
2018-09-08T20:24:00.542Z,99.90
2018-09-08T20:26:27.988Z,99.90
2018-09-08T20:28:55.370Z,99.90
2018-09-08T20:31:22.761Z,99.90
2018-09-08T20:33:50.172Z,99.90
2018-09-08T20:36:17.629Z,99.90
2018-09-08T20:38:44.955Z,99.90
2018-09-08T20:41:12.414Z,99.90
2018-09-08T20:43:39.797Z,99.90
2018-09-08T20:46:07.222Z,99.90
2018-09-08T20:48:34.657Z,99.90
2018-09-08T20:51:02.360Z,99.90
2018-09-08T20:53:29.742Z,99.90
2018-09-08T20:55:57.185Z,99.90
2018-09-08T20:58:24.550Z,99.90
2018-09-08T21:00:51.919Z,99.90
2018-09-08T21:03:19.563Z,99.90
2018-09-08T21:05:46.960Z,99.90
2018-09-08T21:08:14.351Z,99.90
2018-09-08T21:10:41.741Z,99.90
2018-09-08T21:13:09.215Z,99.90
2018-09-08T21:15:36.571Z,99.90
2018-09-08T21:18:03.935Z,99.90
2018-09-08T21:20:31.450Z,99.90
2018-09-08T21:22:58.802Z,99.90
2018-09-08T21:25:26.252Z,99.90
2018-09-08T21:27:53.631Z,99.90
2018-09-08T21:30:20.957Z,99.90
2018-09-08T21:32:48.433Z,99.90
2018-09-08T21:35:15.734Z,99.90
2018-09-08T21:37:43.170Z,99.90
2018-09-08T21:40:10.478Z,99.90
2018-09-08T21:42:37.883Z,99.90
2018-09-08T21:45:05.802Z,99.90
2018-09-08T21:47:33.185Z,99.90
2018-09-08T21:50:00.546Z,99.90
2018-09-08T21:52:28.069Z,99.90
2018-09-08T21:54:55.413Z,99.90
2018-09-08T21:57:22.804Z,99.90
2018-09-08T21:59:50.285Z,99.90
2018-09-08T22:02:17.731Z,99.90
2018-09-08T22:04:45.196Z,99.90
2018-09-08T22:07:12.899Z,99.90
2018-09-08T22:09:40.312Z,99.90
2018-09-08T22:12:10.081Z,99.90
2018-09-08T22:14:37.535Z,99.90
2018-09-08T22:17:05.378Z,99.90
2018-09-08T22:19:32.779Z,99.90
2018-09-08T22:22:00.103Z,99.90
2018-09-08T22:24:27.442Z,99.90
2018-09-08T22:26:54.812Z,99.90
2018-09-08T22:29:22.309Z,99.90
2018-09-08T22:31:49.695Z,99.90
2018-09-08T22:34:17.146Z,99.90
2018-09-08T22:36:44.542Z,99.90
2018-09-08T22:39:11.983Z,99.90
2018-09-08T22:41:39.418Z,99.90
2018-09-08T22:44:06.846Z,99.90
2018-09-08T22:46:34.242Z,99.90
2018-09-08T22:49:01.689Z,99.90
2018-09-08T22:51:29.126Z,99.90
2018-09-08T22:53:56.458Z,99.90
2018-09-08T22:56:23.854Z,99.90
2018-09-08T22:58:51.280Z,99.90
2018-09-08T23:01:18.778Z,99.90
2018-09-08T23:03:46.207Z,99.90
2018-09-08T23:06:13.563Z,99.90
2018-09-08T23:08:41.065Z,99.90
2018-09-08T23:11:08.458Z,99.90
2018-09-08T23:13:35.856Z,99.90
2018-09-08T23:16:03.314Z,99.90
2018-09-08T23:18:30.734Z,99.90
2018-09-08T23:20:58.149Z,99.90
2018-09-08T23:23:26.321Z,99.90
2018-09-08T23:25:53.766Z,99.90
2018-09-08T23:28:21.208Z,99.90
2018-09-08T23:30:48.663Z,99.90
2018-09-08T23:33:16.086Z,99.90
2018-09-08T23:35:43.498Z,99.90
2018-09-08T23:38:10.922Z,99.90
2018-09-08T23:40:38.324Z,99.90
2018-09-08T23:43:05.653Z,99.90
2018-09-08T23:45:33.141Z,99.90
2018-09-08T23:48:00.476Z,99.90
2018-09-08T23:50:27.941Z,99.90
2018-09-08T23:52:55.302Z,99.90
2018-09-08T23:55:22.738Z,99.90
2018-09-08T23:57:50.216Z,99.90
